^^
Saratoga-Weather Station Historical Data
Daily Summary for September 24, 2020 Units:  Both    English   Metric
Daily Weekly Monthly Yearly Custom
  High: Low: Average:
Temperature: 43.2 °F /  6.2 °C 37.2 °F /  2.9 °C 39.7 °F /  4.3 °C
Dew Point: 42.1 °F /  5.6 °C 36.5 °F /  2.5 °C 39 °F /  3.9 °C
Humidity: 98% 95% 97%
Wind Speed: 4mph /  6.4km/h - 1mph /  1.6km/h
Wind Gust: 7mph /  11.3km/h - -
Wind- - East
Pressure: 30.4 in /  1028.1 hPa 30.1 in /  1020.0 hPa -
Precipitation: 0.01 in /  0.2 mm    
Historical Graphs
 
 
Tabular Data for September 24, 2020
Time Temperature Dew Point Pressure Wind Wind Speed Wind Gust Humidity Rainfall Rate (Hourly) solar
00:00 43.2 °F /  6.2 °C 42.1 °F /  5.6 °C 30.4in /  1028.1hPa Calm     96% 0in /  0.0mm 0 W/m2
00:05 43 °F /  6.1 °C 41.9 °F /  5.5 °C 30.4in /  1028.1hPa Calm     96% 0in /  0.0mm 0 W/m2
00:10 42.8 °F /  6 °C 41.7 °F /  5.4 °C 30.4in /  1027.8hPa Calm     96% 0in /  0.0mm 0 W/m2
00:15 42.6 °F /  5.9 °C 41.5 °F /  5.3 °C 30.4in /  1028.1hPa Calm     96% 0in /  0.0mm 0 W/m2
00:20 42.4 °F /  5.8 °C 41.4 °F /  5.2 °C 30.4in /  1027.8hPa Calm     96% 0in /  0.0mm 0 W/m2
00:25 42.4 °F /  5.8 °C 41.4 °F /  5.2 °C 30.4in /  1027.8hPa Calm     96% 0in /  0.0mm 0 W/m2
00:30 42.3 °F /  5.7 °C 41.2 °F /  5.1 °C 30.4in /  1027.8hPa Calm     96% 0in /  0.0mm 0 W/m2
00:35 42.3 °F /  5.7 °C 41.2 °F /  5.1 °C 30.4in /  1027.8hPa Calm     96% 0in /  0.0mm 0 W/m2
00:40 42.1 °F /  5.6 °C 41 °F /  5 °C 30.4in /  1027.8hPa Calm     96% 0in /  0.0mm 0 W/m2
00:45 41.7 °F /  5.4 °C 40.6 °F /  4.8 °C 30.4in /  1027.8hPa Calm     96% 0in /  0.0mm 0 W/m2
00:50 41.7 °F /  5.4 °C 40.6 °F /  4.8 °C 30.3in /  1027.4hPa Calm     96% 0in /  0.0mm 0 W/m2
00:55 41.5 °F /  5.3 °C 40.5 °F /  4.7 °C 30.3in /  1027.4hPa Calm     96% 0in /  0.0mm 0 W/m2
01:00 41.5 °F /  5.3 °C 40.5 °F /  4.7 °C 30.3in /  1027.4hPa Calm     96% 0in /  0.0mm 0 W/m2
01:05 41.4 °F /  5.2 °C 40.3 °F /  4.6 °C 30.3in /  1027.4hPa Calm     96% 0in /  0.0mm 0 W/m2
01:10 41.4 °F /  5.2 °C 40.3 °F /  4.6 °C 30.3in /  1027.4hPa Calm     96% 0in /  0.0mm 0 W/m2
01:15 41.4 °F /  5.2 °C 40.3 °F /  4.6 °C 30.3in /  1027.4hPa Calm     96% 0in /  0.0mm 0 W/m2
01:20 41.4 °F /  5.2 °C 40.3 °F /  4.6 °C 30.3in /  1027.4hPa Calm     96% 0in /  0.0mm 0 W/m2
01:25 41.5 °F /  5.3 °C 40.5 °F /  4.7 °C 30.3in /  1027.4hPa Calm     96% 0in /  0.0mm 0 W/m2
01:30 41.5 °F /  5.3 °C 40.5 °F /  4.7 °C 30.3in /  1027.4hPa Calm     96% 0in /  0.0mm 0 W/m2
01:35 41.7 °F /  5.4 °C 41 °F /  5 °C 30.3in /  1027.4hPa Calm     97% 0in /  0.0mm 0 W/m2
01:40 41.9 °F /  5.5 °C 41.2 °F /  5.1 °C 30.3in /  1027.4hPa Calm     97% 0in /  0.0mm 0 W/m2
01:45 42.1 °F /  5.6 °C 41.4 °F /  5.2 °C 30.3in /  1027.4hPa Calm     97% 0in /  0.0mm 0 W/m2
01:50 42.3 °F /  5.7 °C 41.5 °F /  5.3 °C 30.3in /  1027.4hPa Calm     97% 0in /  0.0mm 0 W/m2
01:55 42.3 °F /  5.7 °C 41.5 °F /  5.3 °C 30.3in /  1027.4hPa ENE 0.9mph /  1.4km/h 2mph /  3.2km/h 97% 0in /  0.0mm 0 W/m2
02:01 42.3 °F /  5.7 °C 41.5 °F /  5.3 °C 30.3in /  1027.1hPa Calm   1mph /  1.6km/h 97% 0in /  0.0mm 0 W/m2
02:06 42.3 °F /  5.7 °C 41.5 °F /  5.3 °C 30.3in /  1027.1hPa Calm     97% 0in /  0.0mm 0 W/m2
02:11 42.1 °F /  5.6 °C 41.4 °F /  5.2 °C 30.3in /  1027.1hPa Calm   1mph /  1.6km/h 97% 0in /  0.0mm 0 W/m2
02:16 42.1 °F /  5.6 °C 41.4 °F /  5.2 °C 30.3in /  1027.1hPa Calm     97% 0in /  0.0mm 0 W/m2
02:21 42.1 °F /  5.6 °C 41.4 °F /  5.2 °C 30.3in /  1027.1hPa Calm     97% 0in /  0.0mm 0 W/m2
02:26 42.1 °F /  5.6 °C 41.4 °F /  5.2 °C 30.3in /  1026.8hPa Calm     97% 0in /  0.0mm 0 W/m2
02:31 41.9 °F /  5.5 °C 41.2 °F /  5.1 °C 30.3in /  1026.8hPa Calm     97% 0in /  0.0mm 0 W/m2
02:36 42.1 °F /  5.6 °C 41.4 °F /  5.2 °C 30.3in /  1026.8hPa Calm     97% 0in /  0.0mm 0 W/m2
02:41 41.9 °F /  5.5 °C 41.2 °F /  5.1 °C 30.3in /  1026.8hPa Calm     97% 0in /  0.0mm 0 W/m2
02:46 41.9 °F /  5.5 °C 41.2 °F /  5.1 °C 30.3in /  1026.8hPa Calm     97% 0in /  0.0mm 0 W/m2
02:51 41.9 °F /  5.5 °C 41.2 °F /  5.1 °C 30.3in /  1026.8hPa Calm     97% 0in /  0.0mm 0 W/m2
02:56 41.9 °F /  5.5 °C 41.2 °F /  5.1 °C 30.3in /  1026.8hPa Calm     97% 0in /  0.0mm 0 W/m2
03:01 41.9 °F /  5.5 °C 41.2 °F /  5.1 °C 30.3in /  1026.8hPa Calm   2mph /  3.2km/h 97% 0in /  0.0mm 0 W/m2
03:06 41.9 °F /  5.5 °C 41.2 °F /  5.1 °C 30.3in /  1026.8hPa Calm   1mph /  1.6km/h 97% 0in /  0.0mm 0 W/m2
03:11 41.7 °F /  5.4 °C 41 °F /  5 °C 30.3in /  1026.8hPa Calm   2mph /  3.2km/h 97% 0in /  0.0mm 0 W/m2
03:16 41.7 °F /  5.4 °C 41 °F /  5 °C 30.3in /  1026.8hPa Calm   2mph /  3.2km/h 97% 0in /  0.0mm 0 W/m2
03:21 41.5 °F /  5.3 °C 40.5 °F /  4.7 °C 30.3in /  1026.8hPa Calm   2mph /  3.2km/h 96% 0in /  0.0mm 0 W/m2
03:26 41.5 °F /  5.3 °C 40.8 °F /  4.9 °C 30.3in /  1026.8hPa Calm     97% 0in /  0.0mm 0 W/m2
03:31 41.5 °F /  5.3 °C 40.8 °F /  4.9 °C 30.3in /  1026.4hPa Calm     97% 0in /  0.0mm 0 W/m2
03:36 41.4 °F /  5.2 °C 40.6 °F /  4.8 °C 30.3in /  1026.4hPa NE 0.9mph /  1.4km/h 2mph /  3.2km/h 97% 0in /  0.0mm 0 W/m2
03:41 41.4 °F /  5.2 °C 40.6 °F /  4.8 °C 30.3in /  1026.4hPa Calm     97% 0in /  0.0mm 0 W/m2
03:46 41.4 °F /  5.2 °C 40.6 °F /  4.8 °C 30.3in /  1026.4hPa Calm   1mph /  1.6km/h 97% 0in /  0.0mm 0 W/m2
03:51 41.4 °F /  5.2 °C 40.6 °F /  4.8 °C 30.3in /  1026.1hPa Calm   1mph /  1.6km/h 97% 0in /  0.0mm 0 W/m2
03:56 41.2 °F /  5.1 °C 40.5 °F /  4.7 °C 30.3in /  1026.1hPa Calm     97% 0in /  0.0mm 0 W/m2
04:01 41.2 °F /  5.1 °C 40.5 °F /  4.7 °C 30.3in /  1026.1hPa NE 0.9mph /  1.4km/h 1mph /  1.6km/h 97% 0in /  0.0mm 0 W/m2
04:06 41.2 °F /  5.1 °C 40.5 °F /  4.7 °C 30.3in /  1026.1hPa Calm   1mph /  1.6km/h 97% 0in /  0.0mm 0 W/m2
04:11 41.2 °F /  5.1 °C 40.5 °F /  4.7 °C 30.3in /  1025.7hPa Calm   1mph /  1.6km/h 97% 0in /  0.0mm 0 W/m2
04:16 41.2 °F /  5.1 °C 40.5 °F /  4.7 °C 30.3in /  1025.7hPa NE 0.9mph /  1.4km/h 2mph /  3.2km/h 97% 0in /  0.0mm 0 W/m2
04:21 41 °F /  5 °C 40.3 °F /  4.6 °C 30.3in /  1026.1hPa Calm   1mph /  1.6km/h 97% 0in /  0.0mm 0 W/m2
04:26 41 °F /  5 °C 40.3 °F /  4.6 °C 30.3in /  1026.1hPa NE 0.9mph /  1.4km/h 3mph /  4.8km/h 97% 0in /  0.0mm 0 W/m2
04:31 40.8 °F /  4.9 °C 40.1 °F /  4.5 °C 30.3in /  1025.7hPa NE 2mph /  3.2km/h 2mph /  3.2km/h 97% 0in /  0.0mm 0 W/m2
04:36 40.6 °F /  4.8 °C 39.9 °F /  4.4 °C 30.3in /  1025.7hPa NE 0.9mph /  1.4km/h 3mph /  4.8km/h 97% 0in /  0.0mm 0 W/m2
04:41 40.5 °F /  4.7 °C 39.7 °F /  4.3 °C 30.3in /  1026.1hPa Calm   1mph /  1.6km/h 97% 0in /  0.0mm 0 W/m2
04:46 40.5 °F /  4.7 °C 39.7 °F /  4.3 °C 30.3in /  1025.7hPa Calm     97% 0in /  0.0mm 0 W/m2
04:51 40.5 °F /  4.7 °C 39.7 °F /  4.3 °C 30.3in /  1025.7hPa Calm     97% 0in /  0.0mm 0 W/m2
04:56 40.5 °F /  4.7 °C 39.7 °F /  4.3 °C 30.3in /  1026.1hPa Calm     97% 0in /  0.0mm 0 W/m2
05:01 40.5 °F /  4.7 °C 39.7 °F /  4.3 °C 30.3in /  1025.7hPa NE 0.9mph /  1.4km/h 2mph /  3.2km/h 97% 0in /  0.0mm 0 W/m2
05:06 40.3 °F /  4.6 °C 39.6 °F /  4.2 °C 30.3in /  1025.7hPa Calm   1mph /  1.6km/h 97% 0in /  0.0mm 0 W/m2
05:11 40.3 °F /  4.6 °C 39.6 °F /  4.2 °C 30.3in /  1025.7hPa Calm     97% 0in /  0.0mm 0 W/m2
05:16 40.3 °F /  4.6 °C 39.6 °F /  4.2 °C 30.3in /  1025.7hPa Calm     97% 0in /  0.0mm 0 W/m2
05:21 40.3 °F /  4.6 °C 39.6 °F /  4.2 °C 30.3in /  1025.7hPa NE 0.9mph /  1.4km/h 1mph /  1.6km/h 97% 0in /  0.0mm 0 W/m2
05:26 40.1 °F /  4.5 °C 39.4 °F /  4.1 °C 30.3in /  1025.7hPa Calm   1mph /  1.6km/h 97% 0in /  0.0mm 0 W/m2
05:31 40.1 °F /  4.5 °C 39.4 °F /  4.1 °C 30.3in /  1025.7hPa Calm     97% 0in /  0.0mm 0 W/m2
05:36 39.9 °F /  4.4 °C 39.2 °F /  4 °C 30.3in /  1025.7hPa Calm     97% 0in /  0.0mm 0 W/m2
05:41 39.9 °F /  4.4 °C 39.2 °F /  4 °C 30.3in /  1025.7hPa Calm     97% 0in /  0.0mm 0 W/m2
05:46 39.9 °F /  4.4 °C 39.2 °F /  4 °C 30.3in /  1025.7hPa Calm     97% 0in /  0.0mm 0 W/m2
05:51 39.9 °F /  4.4 °C 39.2 °F /  4 °C 30.3in /  1025.7hPa Calm     97% 0in /  0.0mm 0 W/m2
05:56 39.9 °F /  4.4 °C 39.2 °F /  4 °C 30.3in /  1025.7hPa NE 0.9mph /  1.4km/h 1mph /  1.6km/h 97% 0in /  0.0mm 0 W/m2
06:01 39.9 °F /  4.4 °C 39.2 °F /  4 °C 30.3in /  1025.7hPa NE 0.9mph /  1.4km/h 1mph /  1.6km/h 97% 0in /  0.0mm 0 W/m2
06:06 39.7 °F /  4.3 °C 39 °F /  3.9 °C 30.3in /  1025.7hPa Calm     97% 0in /  0.0mm 0 W/m2
06:11 39.7 °F /  4.3 °C 39 °F /  3.9 °C 30.3in /  1025.7hPa Calm     97% 0in /  0.0mm 0 W/m2
06:16 39.9 °F /  4.4 °C 39.2 °F /  4 °C 30.3in /  1025.7hPa Calm   1mph /  1.6km/h 97% 0in /  0.0mm 0 W/m2
06:21 39.7 °F /  4.3 °C 39 °F /  3.9 °C 30.3in /  1025.4hPa NE 0.9mph /  1.4km/h 1mph /  1.6km/h 97% 0in /  0.0mm 0 W/m2
06:26 39.7 °F /  4.3 °C 39 °F /  3.9 °C 30.3in /  1025.4hPa Calm     97% 0in /  0.0mm 0 W/m2
06:31 39.7 °F /  4.3 °C 39 °F /  3.9 °C 30.3in /  1025.4hPa Calm     97% 0in /  0.0mm 0 W/m2
06:36 39.7 °F /  4.3 °C 39 °F /  3.9 °C 30.3in /  1025.4hPa Calm   2mph /  3.2km/h 97% 0in /  0.0mm 0 W/m2
06:41 39.7 °F /  4.3 °C 39 °F /  3.9 °C 30.3in /  1025.4hPa Calm     97% 0in /  0.0mm 0 W/m2
06:46 39.7 °F /  4.3 °C 39 °F /  3.9 °C 30.3in /  1025.4hPa Calm   1mph /  1.6km/h 97% 0in /  0.0mm 0 W/m2
06:51 39.7 °F /  4.3 °C 39 °F /  3.9 °C 30.3in /  1025.4hPa Calm   1mph /  1.6km/h 97% 0in /  0.0mm 0 W/m2
06:56 39.7 °F /  4.3 °C 39 °F /  3.9 °C 30.3in /  1025.4hPa NE 2mph /  3.2km/h 3mph /  4.8km/h 97% 0in /  0.0mm 0 W/m2
07:01 39.7 °F /  4.3 °C 39 °F /  3.9 °C 30.3in /  1025.4hPa Calm   2mph /  3.2km/h 97% 0in /  0.0mm 0 W/m2
07:06 39.7 °F /  4.3 °C 39 °F /  3.9 °C 30.3in /  1025.4hPa Calm   3mph /  4.8km/h 97% 0in /  0.0mm 0 W/m2
07:11 39.7 °F /  4.3 °C 39 °F /  3.9 °C 30.3in /  1025.4hPa NE 0.9mph /  1.4km/h 1mph /  1.6km/h 97% 0in /  0.0mm 0 W/m2
07:16 39.9 °F /  4.4 °C 39.2 °F /  4 °C 30.3in /  1025.4hPa NE 2.9mph /  4.7km/h 4mph /  6.4km/h 97% 0in /  0.0mm 0 W/m2
07:21 39.9 °F /  4.4 °C 39.2 °F /  4 °C 30.3in /  1025.4hPa NE 0.9mph /  1.4km/h 3mph /  4.8km/h 97% 0in /  0.0mm 0 W/m2
07:26 39.9 °F /  4.4 °C 39.2 °F /  4 °C 30.3in /  1025.4hPa NE 0.9mph /  1.4km/h 4mph /  6.4km/h 97% 0in /  0.0mm 0 W/m2
07:31 39.9 °F /  4.4 °C 39.2 °F /  4 °C 30.3in /  1025.4hPa Calm   1mph /  1.6km/h 97% 0in /  0.0mm 0 W/m2
07:36 39.9 °F /  4.4 °C 39.2 °F /  4 °C 30.3in /  1025.4hPa Calm   2mph /  3.2km/h 97% 0in /  0.0mm 0 W/m2
07:41 39.9 °F /  4.4 °C 39.2 °F /  4 °C 30.3in /  1025.4hPa Calm   1mph /  1.6km/h 97% 0in /  0.0mm 0 W/m2
07:46 39.9 °F /  4.4 °C 39.2 °F /  4 °C 30.3in /  1025.4hPa Calm   2mph /  3.2km/h 97% 0in /  0.0mm 0 W/m2
07:51 39.9 °F /  4.4 °C 39.2 °F /  4 °C 30.3in /  1025.4hPa Calm   2mph /  3.2km/h 97% 0in /  0.0mm 0 W/m2
07:56 39.9 °F /  4.4 °C 39.2 °F /  4 °C 30.3in /  1025.4hPa NE 2mph /  3.2km/h 3mph /  4.8km/h 97% 0in /  0.0mm 0 W/m2
08:01 39.9 °F /  4.4 °C 39.2 °F /  4 °C 30.3in /  1025.4hPa ENE 2mph /  3.2km/h 2mph /  3.2km/h 97% 0in /  0.0mm 0 W/m2
08:06 39.9 °F /  4.4 °C 39.2 °F /  4 °C 30.3in /  1025.4hPa ENE 0.9mph /  1.4km/h 1mph /  1.6km/h 97% 0in /  0.0mm 0 W/m2
08:11 39.9 °F /  4.4 °C 39.2 °F /  4 °C 30.3in /  1025.4hPa Calm     97% 0in /  0.0mm 0 W/m2
08:16 39.9 °F /  4.4 °C 39.2 °F /  4 °C 30.3in /  1025.4hPa Calm     97% 0in /  0.0mm 0 W/m2
08:21 39.9 °F /  4.4 °C 39.2 °F /  4 °C 30.3in /  1025.4hPa ENE 2mph /  3.2km/h 4mph /  6.4km/h 97% 0in /  0.0mm 5 W/m2
08:26 39.7 °F /  4.3 °C 39 °F /  3.9 °C 30.3in /  1025.4hPa Calm     97% 0in /  0.0mm 5 W/m2
08:31 39.7 °F /  4.3 °C 39 °F /  3.9 °C 30.3in /  1025.4hPa Calm   2mph /  3.2km/h 97% 0in /  0.0mm 5 W/m2
08:36 39.7 °F /  4.3 °C 39 °F /  3.9 °C 30.3in /  1025.4hPa Calm   2mph /  3.2km/h 97% 0.01in /  0.2mm 7 W/m2
08:41 39.7 °F /  4.3 °C 39 °F /  3.9 °C 30.3in /  1025.4hPa ESE 2mph /  3.2km/h 3mph /  4.8km/h 97% 0.01in /  0.2mm 7 W/m2
08:46 39.7 °F /  4.3 °C 39 °F /  3.9 °C 30.3in /  1025.4hPa Calm   1mph /  1.6km/h 97% 0.01in /  0.2mm 9 W/m2
08:51 39.7 °F /  4.3 °C 39 °F /  3.9 °C 30.3in /  1025.4hPa Calm     97% 0.01in /  0.2mm 11 W/m2
08:56 39.7 °F /  4.3 °C 39 °F /  3.9 °C 30.3in /  1025.4hPa ENE 0.9mph /  1.4km/h 5mph /  8km/h 97% 0.01in /  0.2mm 11 W/m2
09:01 39.6 °F /  4.2 °C 38.8 °F /  3.8 °C 30.3in /  1025.4hPa Calm     97% 0.01in /  0.2mm 12 W/m2
09:06 39.6 °F /  4.2 °C 38.8 °F /  3.8 °C 30.3in /  1025.1hPa Calm   5mph /  8km/h 97% 0.01in /  0.2mm 14 W/m2
09:11 39.6 °F /  4.2 °C 38.8 °F /  3.8 °C 30.3in /  1025.1hPa Calm   3mph /  4.8km/h 97% 0.01in /  0.2mm 14 W/m2
09:16 39.6 °F /  4.2 °C 38.8 °F /  3.8 °C 30.3in /  1025.1hPa NE 0.9mph /  1.4km/h 1mph /  1.6km/h 97% 0.01in /  0.2mm 18 W/m2
09:21 39.6 °F /  4.2 °C 38.8 °F /  3.8 °C 30.3in /  1025.1hPa East 2mph /  3.2km/h 2mph /  3.2km/h 97% 0.01in /  0.2mm 21 W/m2
09:26 39.6 °F /  4.2 °C 38.8 °F /  3.8 °C 30.3in /  1025.1hPa ESE 4mph /  6.4km/h 4mph /  6.4km/h 97% 0.01in /  0.2mm 23 W/m2
09:31 39.6 °F /  4.2 °C 38.8 °F /  3.8 °C 30.3in /  1025.1hPa SSE 2.9mph /  4.7km/h 4mph /  6.4km/h 97% 0.01in /  0.2mm 23 W/m2
09:36 39.6 °F /  4.2 °C 38.8 °F /  3.8 °C 30.3in /  1025.1hPa ESE 0.9mph /  1.4km/h 3mph /  4.8km/h 97% 0in /  0.0mm 26 W/m2
09:41 39.4 °F /  4.1 °C 38.7 °F /  3.7 °C 30.3in /  1025.1hPa ENE 2mph /  3.2km/h 2mph /  3.2km/h 97% 0in /  0.0mm 28 W/m2
09:46 39.4 °F /  4.1 °C 38.7 °F /  3.7 °C 30.3in /  1025.1hPa ENE 2mph /  3.2km/h 4mph /  6.4km/h 97% 0in /  0.0mm 28 W/m2
09:51 39 °F /  3.9 °C 38.3 °F /  3.5 °C 30.3in /  1025.1hPa ESE 2.9mph /  4.7km/h 3mph /  4.8km/h 97% 0in /  0.0mm 28 W/m2
09:56 38.8 °F /  3.8 °C 38.1 °F /  3.4 °C 30.3in /  1025.1hPa ESE 0.9mph /  1.4km/h 2mph /  3.2km/h 97% 0in /  0.0mm 28 W/m2
10:01 38.8 °F /  3.8 °C 38.1 °F /  3.4 °C 30.3in /  1025.1hPa East 2.9mph /  4.7km/h 4mph /  6.4km/h 97% 0in /  0.0mm 32 W/m2
10:06 38.8 °F /  3.8 °C 38.1 °F /  3.4 °C 30.3in /  1025.4hPa East 0.9mph /  1.4km/h 3mph /  4.8km/h 97% 0in /  0.0mm 30 W/m2
10:11 38.7 °F /  3.7 °C 37.9 °F /  3.3 °C 30.3in /  1025.1hPa ESE 2mph /  3.2km/h 2mph /  3.2km/h 97% 0in /  0.0mm 33 W/m2
10:16 38.7 °F /  3.7 °C 37.9 °F /  3.3 °C 30.3in /  1025.1hPa East 0.9mph /  1.4km/h 2mph /  3.2km/h 97% 0in /  0.0mm 39 W/m2
10:21 38.5 °F /  3.6 °C 37.8 °F /  3.2 °C 30.3in /  1025.1hPa SE 0.9mph /  1.4km/h 3mph /  4.8km/h 97% 0in /  0.0mm 40 W/m2
10:26 38.5 °F /  3.6 °C 37.8 °F /  3.2 °C 30.3in /  1025.1hPa East 2mph /  3.2km/h 2mph /  3.2km/h 97% 0in /  0.0mm 39 W/m2
10:31 38.5 °F /  3.6 °C 37.8 °F /  3.2 °C 30.3in /  1025.1hPa SE 2mph /  3.2km/h 2mph /  3.2km/h 97% 0in /  0.0mm 42 W/m2
10:36 38.5 °F /  3.6 °C 37.8 °F /  3.2 °C 30.3in /  1025.1hPa Calm   2mph /  3.2km/h 97% 0in /  0.0mm 46 W/m2
10:41 38.5 °F /  3.6 °C 37.8 °F /  3.2 °C 30.3in /  1025.1hPa SE 0.9mph /  1.4km/h 6mph /  9.7km/h 97% 0in /  0.0mm 46 W/m2
10:46 38.1 °F /  3.4 °C 37.4 °F /  3 °C 30.3in /  1025.1hPa ESE 2mph /  3.2km/h 3mph /  4.8km/h 97% 0in /  0.0mm 46 W/m2
10:51 38.1 °F /  3.4 °C 37.4 °F /  3 °C 30.3in /  1025.1hPa East 0.9mph /  1.4km/h 6mph /  9.7km/h 97% 0in /  0.0mm 47 W/m2
10:57 37.9 °F /  3.3 °C 37.2 °F /  2.9 °C 30.3in /  1025.1hPa Calm   3mph /  4.8km/h 97% 0in /  0.0mm 47 W/m2
11:02 37.9 °F /  3.3 °C 37.2 °F /  2.9 °C 30.3in /  1025.1hPa Calm   1mph /  1.6km/h 97% 0in /  0.0mm 46 W/m2
11:07 37.9 °F /  3.3 °C 37.2 °F /  2.9 °C 30.3in /  1025.1hPa East 0.9mph /  1.4km/h 1mph /  1.6km/h 97% 0in /  0.0mm 49 W/m2
11:12 38.1 °F /  3.4 °C 37.4 °F /  3 °C 30.3in /  1025.1hPa East 0.9mph /  1.4km/h 2mph /  3.2km/h 97% 0in /  0.0mm 47 W/m2
11:17 38.1 °F /  3.4 °C 37.4 °F /  3 °C 30.3in /  1025.1hPa ENE 0.9mph /  1.4km/h 2mph /  3.2km/h 97% 0in /  0.0mm 44 W/m2
11:22 38.1 °F /  3.4 °C 37.4 °F /  3 °C 30.3in /  1025.1hPa East 0.9mph /  1.4km/h 3mph /  4.8km/h 97% 0in /  0.0mm 44 W/m2
11:27 38.1 °F /  3.4 °C 37.4 °F /  3 °C 30.3in /  1025.1hPa ENE 0.9mph /  1.4km/h 2mph /  3.2km/h 97% 0in /  0.0mm 47 W/m2
11:32 37.9 °F /  3.3 °C 37.2 °F /  2.9 °C 30.3in /  1025.1hPa ESE 4mph /  6.4km/h 7mph /  11.3km/h 97% 0in /  0.0mm 46 W/m2
11:37 37.8 °F /  3.2 °C 37 °F /  2.8 °C 30.3in /  1024.7hPa Calm   2mph /  3.2km/h 97% 0in /  0.0mm 49 W/m2
11:42 37.8 °F /  3.2 °C 37 °F /  2.8 °C 30.3in /  1024.7hPa ENE 2.9mph /  4.7km/h 7mph /  11.3km/h 97% 0in /  0.0mm 47 W/m2
11:47 37.6 °F /  3.1 °C 36.9 °F /  2.7 °C 30.3in /  1024.7hPa ESE 0.9mph /  1.4km/h 3mph /  4.8km/h 97% 0in /  0.0mm 49 W/m2
11:52 37.6 °F /  3.1 °C 36.9 °F /  2.7 °C 30.3in /  1024.7hPa East 2mph /  3.2km/h 3mph /  4.8km/h 97% 0in /  0.0mm 51 W/m2
11:57 37.6 °F /  3.1 °C 36.9 °F /  2.7 °C 30.3in /  1024.7hPa ESE 0.9mph /  1.4km/h 2mph /  3.2km/h 97% 0in /  0.0mm 49 W/m2
12:02 37.6 °F /  3.1 °C 36.9 °F /  2.7 °C 30.3in /  1024.4hPa NE 2mph /  3.2km/h 3mph /  4.8km/h 97% 0in /  0.0mm 51 W/m2
12:07 37.2 °F /  2.9 °C 36.5 °F /  2.5 °C 30.3in /  1024.4hPa ENE 0.9mph /  1.4km/h 3mph /  4.8km/h 97% 0in /  0.0mm 53 W/m2
12:12 37.2 °F /  2.9 °C 36.5 °F /  2.5 °C 30.3in /  1024.4hPa Calm   2mph /  3.2km/h 97% 0in /  0.0mm 51 W/m2
12:17 37.2 °F /  2.9 °C 36.5 °F /  2.5 °C 30.3in /  1024.4hPa ENE 0.9mph /  1.4km/h 2mph /  3.2km/h 97% 0in /  0.0mm 49 W/m2
12:22 37.4 °F /  3 °C 36.7 °F /  2.6 °C 30.2in /  1024.0hPa ENE 0.9mph /  1.4km/h 4mph /  6.4km/h 97% 0in /  0.0mm 53 W/m2
12:27 37.6 °F /  3.1 °C 36.9 °F /  2.7 °C 30.2in /  1024.0hPa ESE 2mph /  3.2km/h 3mph /  4.8km/h 97% 0in /  0.0mm 58 W/m2
12:32 37.8 °F /  3.2 °C 37 °F /  2.8 °C 30.2in /  1024.0hPa Calm   3mph /  4.8km/h 97% 0in /  0.0mm 62 W/m2
12:37 37.9 °F /  3.3 °C 37.2 °F /  2.9 °C 30.2in /  1024.0hPa SE 2mph /  3.2km/h 3mph /  4.8km/h 97% 0in /  0.0mm 65 W/m2
12:42 38.1 °F /  3.4 °C 37.4 °F /  3 °C 30.2in /  1023.7hPa NE 2mph /  3.2km/h 3mph /  4.8km/h 97% 0in /  0.0mm 49 W/m2
12:47 38.1 °F /  3.4 °C 37.4 °F /  3 °C 30.2in /  1023.7hPa East 2mph /  3.2km/h 4mph /  6.4km/h 97% 0in /  0.0mm 56 W/m2
12:52 38.1 °F /  3.4 °C 37.4 °F /  3 °C 30.2in /  1023.7hPa ESE 2mph /  3.2km/h 3mph /  4.8km/h 97% 0in /  0.0mm 60 W/m2
12:57 38.3 °F /  3.5 °C 37.6 °F /  3.1 °C 30.2in /  1023.7hPa East 2mph /  3.2km/h 4mph /  6.4km/h 97% 0in /  0.0mm 53 W/m2
13:02 38.5 °F /  3.6 °C 37.8 °F /  3.2 °C 30.2in /  1023.7hPa East 0.9mph /  1.4km/h 3mph /  4.8km/h 97% 0in /  0.0mm 49 W/m2
13:07 38.5 °F /  3.6 °C 37.8 °F /  3.2 °C 30.2in /  1023.4hPa ENE 2.9mph /  4.7km/h 3mph /  4.8km/h 97% 0in /  0.0mm 49 W/m2
13:12 38.7 °F /  3.7 °C 37.9 °F /  3.3 °C 30.2in /  1023.4hPa Calm   3mph /  4.8km/h 97% 0in /  0.0mm 46 W/m2
13:17 38.7 °F /  3.7 °C 37.9 °F /  3.3 °C 30.2in /  1023.4hPa Calm   2mph /  3.2km/h 97% 0in /  0.0mm 46 W/m2
13:22 38.8 °F /  3.8 °C 38.1 °F /  3.4 °C 30.2in /  1023.4hPa East 0.9mph /  1.4km/h 2mph /  3.2km/h 97% 0in /  0.0mm 44 W/m2
13:27 38.8 °F /  3.8 °C 38.1 °F /  3.4 °C 30.2in /  1023.4hPa ENE 2mph /  3.2km/h 3mph /  4.8km/h 97% 0in /  0.0mm 47 W/m2
13:32 38.8 °F /  3.8 °C 38.1 °F /  3.4 °C 30.2in /  1023.4hPa ESE 0.9mph /  1.4km/h 3mph /  4.8km/h 97% 0in /  0.0mm 40 W/m2
13:37 39 °F /  3.9 °C 38.3 °F /  3.5 °C 30.2in /  1023.4hPa ESE 0.9mph /  1.4km/h 3mph /  4.8km/h 97% 0in /  0.0mm 39 W/m2
13:42 39 °F /  3.9 °C 38.3 °F /  3.5 °C 30.2in /  1023.4hPa Calm   3mph /  4.8km/h 97% 0in /  0.0mm 35 W/m2
13:47 39.2 °F /  4 °C 38.7 °F /  3.7 °C 30.2in /  1023.0hPa East 0.9mph /  1.4km/h 3mph /  4.8km/h 98% 0in /  0.0mm 35 W/m2
13:52 39.4 °F /  4.1 °C 38.8 °F /  3.8 °C 30.2in /  1023.0hPa ENE 4mph /  6.4km/h 4mph /  6.4km/h 98% 0in /  0.0mm 37 W/m2
13:57 39.4 °F /  4.1 °C 38.8 °F /  3.8 °C 30.2in /  1023.0hPa East 2mph /  3.2km/h 5mph /  8km/h 98% 0in /  0.0mm 37 W/m2
14:02 39.2 °F /  4 °C 38.7 °F /  3.7 °C 30.2in /  1023.0hPa South 0.9mph /  1.4km/h 3mph /  4.8km/h 98% 0in /  0.0mm 35 W/m2
14:07 39.2 °F /  4 °C 38.7 °F /  3.7 °C 30.2in /  1022.7hPa East 2.9mph /  4.7km/h 4mph /  6.4km/h 98% 0in /  0.0mm 35 W/m2
14:12 39.2 °F /  4 °C 38.7 °F /  3.7 °C 30.2in /  1022.7hPa East 2mph /  3.2km/h 3mph /  4.8km/h 98% 0in /  0.0mm 33 W/m2
14:17 39.2 °F /  4 °C 38.7 °F /  3.7 °C 30.2in /  1022.7hPa ESE 0.9mph /  1.4km/h 3mph /  4.8km/h 98% 0in /  0.0mm 35 W/m2
14:22 39.4 °F /  4.1 °C 38.8 °F /  3.8 °C 30.2in /  1022.7hPa Calm   2mph /  3.2km/h 98% 0in /  0.0mm 30 W/m2
14:27 39.4 °F /  4.1 °C 38.7 °F /  3.7 °C 30.2in /  1022.7hPa Calm   2mph /  3.2km/h 97% 0in /  0.0mm 28 W/m2
14:32 39.2 °F /  4 °C 38.7 °F /  3.7 °C 30.2in /  1022.7hPa Calm   3mph /  4.8km/h 98% 0in /  0.0mm 26 W/m2
14:37 39.2 °F /  4 °C 38.5 °F /  3.6 °C 30.2in /  1022.7hPa SE 2.9mph /  4.7km/h 4mph /  6.4km/h 97% 0in /  0.0mm 26 W/m2
14:42 39.2 °F /  4 °C 38.5 °F /  3.6 °C 30.2in /  1022.7hPa Calm   1mph /  1.6km/h 97% 0in /  0.0mm 28 W/m2
14:47 39.2 °F /  4 °C 38.5 °F /  3.6 °C 30.2in /  1022.7hPa East 0.9mph /  1.4km/h 2mph /  3.2km/h 97% 0in /  0.0mm 26 W/m2
14:52 39 °F /  3.9 °C 38.3 °F /  3.5 °C 30.2in /  1022.4hPa ESE 0.9mph /  1.4km/h 3mph /  4.8km/h 97% 0in /  0.0mm 28 W/m2
14:57 39 °F /  3.9 °C 38.3 °F /  3.5 °C 30.2in /  1022.4hPa Calm   4mph /  6.4km/h 97% 0in /  0.0mm 25 W/m2
15:02 39 °F /  3.9 °C 38.3 °F /  3.5 °C 30.2in /  1022.4hPa ESE 2mph /  3.2km/h 4mph /  6.4km/h 97% 0in /  0.0mm 21 W/m2
15:07 39 °F /  3.9 °C 38.3 °F /  3.5 °C 30.2in /  1022.4hPa East 2mph /  3.2km/h 2mph /  3.2km/h 97% 0in /  0.0mm 21 W/m2
15:12 39 °F /  3.9 °C 38.3 °F /  3.5 °C 30.2in /  1022.4hPa East 2mph /  3.2km/h 2mph /  3.2km/h 97% 0in /  0.0mm 18 W/m2
15:17 39 °F /  3.9 °C 38.3 °F /  3.5 °C 30.2in /  1022.4hPa Calm   2mph /  3.2km/h 97% 0in /  0.0mm 12 W/m2
15:22 38.8 °F /  3.8 °C 38.1 °F /  3.4 °C 30.2in /  1022.4hPa East 0.9mph /  1.4km/h 2mph /  3.2km/h 97% 0in /  0.0mm 11 W/m2
15:27 38.8 °F /  3.8 °C 38.1 °F /  3.4 °C 30.2in /  1022.4hPa ESE 2mph /  3.2km/h 3mph /  4.8km/h 97% 0in /  0.0mm 9 W/m2
15:32 38.8 °F /  3.8 °C 38.1 °F /  3.4 °C 30.2in /  1022.4hPa ESE 4mph /  6.4km/h 4mph /  6.4km/h 97% 0in /  0.0mm 7 W/m2
15:37 38.8 °F /  3.8 °C 38.1 °F /  3.4 °C 30.2in /  1022.0hPa ESE 2mph /  3.2km/h 3mph /  4.8km/h 97% 0in /  0.0mm 9 W/m2
15:42 38.8 °F /  3.8 °C 38.1 °F /  3.4 °C 30.2in /  1022.0hPa NE 2mph /  3.2km/h 2mph /  3.2km/h 97% 0in /  0.0mm 7 W/m2
15:47 38.8 °F /  3.8 °C 38.1 °F /  3.4 °C 30.2in /  1022.0hPa East 2.9mph /  4.7km/h 3mph /  4.8km/h 97% 0in /  0.0mm 7 W/m2
15:52 38.8 °F /  3.8 °C 38.1 °F /  3.4 °C 30.2in /  1022.0hPa East 2.9mph /  4.7km/h 6mph /  9.7km/h 97% 0in /  0.0mm 7 W/m2
15:58 38.7 °F /  3.7 °C 37.9 °F /  3.3 °C 30.2in /  1022.0hPa ESE 2.9mph /  4.7km/h 5mph /  8km/h 97% 0in /  0.0mm 7 W/m2
16:03 38.7 °F /  3.7 °C 37.9 °F /  3.3 °C 30.2in /  1022.0hPa Calm   6mph /  9.7km/h 97% 0in /  0.0mm 5 W/m2
16:08 38.7 °F /  3.7 °C 37.9 °F /  3.3 °C 30.2in /  1022.0hPa ESE 0.9mph /  1.4km/h 2mph /  3.2km/h 97% 0in /  0.0mm 5 W/m2
16:13 38.7 °F /  3.7 °C 37.9 °F /  3.3 °C 30.2in /  1022.0hPa ENE 0.9mph /  1.4km/h 3mph /  4.8km/h 97% 0in /  0.0mm 5 W/m2
16:18 38.8 °F /  3.8 °C 38.1 °F /  3.4 °C 30.2in /  1022.0hPa East 2mph /  3.2km/h 3mph /  4.8km/h 97% 0in /  0.0mm 0 W/m2
16:23 38.8 °F /  3.8 °C 38.1 °F /  3.4 °C 30.2in /  1022.0hPa ESE 0.9mph /  1.4km/h 2mph /  3.2km/h 97% 0in /  0.0mm 0 W/m2
16:28 38.8 °F /  3.8 °C 38.1 °F /  3.4 °C 30.2in /  1022.0hPa East 0.9mph /  1.4km/h 2mph /  3.2km/h 97% 0in /  0.0mm 0 W/m2
16:33 38.8 °F /  3.8 °C 38.1 °F /  3.4 °C 30.2in /  1022.0hPa SE 2mph /  3.2km/h 3mph /  4.8km/h 97% 0in /  0.0mm 0 W/m2
16:38 39 °F /  3.9 °C 38.3 °F /  3.5 °C 30.2in /  1022.0hPa SE 0.9mph /  1.4km/h 3mph /  4.8km/h 97% 0in /  0.0mm 0 W/m2
16:43 39 °F /  3.9 °C 38.3 °F /  3.5 °C 30.2in /  1021.7hPa ENE 0.9mph /  1.4km/h 3mph /  4.8km/h 97% 0in /  0.0mm 0 W/m2
16:48 39 °F /  3.9 °C 38.3 °F /  3.5 °C 30.2in /  1021.7hPa ENE 2mph /  3.2km/h 3mph /  4.8km/h 97% 0in /  0.0mm 0 W/m2
16:53 39 °F /  3.9 °C 38.3 °F /  3.5 °C 30.2in /  1021.7hPa ENE 2.9mph /  4.7km/h 3mph /  4.8km/h 97% 0in /  0.0mm 0 W/m2
16:58 39 °F /  3.9 °C 38.3 °F /  3.5 °C 30.2in /  1021.7hPa SE 2mph /  3.2km/h 4mph /  6.4km/h 97% 0in /  0.0mm 0 W/m2
17:03 39 °F /  3.9 °C 38.3 °F /  3.5 °C 30.2in /  1021.7hPa ENE 4mph /  6.4km/h 4mph /  6.4km/h 97% 0in /  0.0mm 0 W/m2
17:08 39 °F /  3.9 °C 38.3 °F /  3.5 °C 30.2in /  1021.7hPa Calm   2mph /  3.2km/h 97% 0in /  0.0mm 0 W/m2
17:13 39 °F /  3.9 °C 38.3 °F /  3.5 °C 30.2in /  1021.7hPa ESE 0.9mph /  1.4km/h 3mph /  4.8km/h 97% 0in /  0.0mm 0 W/m2
17:18 39 °F /  3.9 °C 38.3 °F /  3.5 °C 30.2in /  1021.7hPa SE 2mph /  3.2km/h 3mph /  4.8km/h 97% 0in /  0.0mm 0 W/m2
17:23 39 °F /  3.9 °C 38.3 °F /  3.5 °C 30.2in /  1021.7hPa ESE 0.9mph /  1.4km/h 7mph /  11.3km/h 97% 0in /  0.0mm 0 W/m2
17:28 39 °F /  3.9 °C 38.3 °F /  3.5 °C 30.2in /  1021.7hPa ESE 2mph /  3.2km/h 2mph /  3.2km/h 97% 0in /  0.0mm 0 W/m2
17:33 39 °F /  3.9 °C 38.3 °F /  3.5 °C 30.2in /  1021.7hPa ESE 0.9mph /  1.4km/h 7mph /  11.3km/h 97% 0in /  0.0mm 0 W/m2
17:38 38.8 °F /  3.8 °C 38.1 °F /  3.4 °C 30.2in /  1021.7hPa NE 2.9mph /  4.7km/h 7mph /  11.3km/h 97% 0in /  0.0mm 0 W/m2
17:43 38.8 °F /  3.8 °C 38.1 °F /  3.4 °C 30.2in /  1021.7hPa ESE 2.9mph /  4.7km/h 3mph /  4.8km/h 97% 0in /  0.0mm 0 W/m2
17:48 38.8 °F /  3.8 °C 38.1 °F /  3.4 °C 30.2in /  1021.7hPa East 2mph /  3.2km/h 3mph /  4.8km/h 97% 0in /  0.0mm 0 W/m2
17:53 38.8 °F /  3.8 °C 38.1 °F /  3.4 °C 30.2in /  1021.7hPa ESE 0.9mph /  1.4km/h 3mph /  4.8km/h 97% 0in /  0.0mm 0 W/m2
17:58 39 °F /  3.9 °C 38.3 °F /  3.5 °C 30.2in /  1021.7hPa ESE 0.9mph /  1.4km/h 4mph /  6.4km/h 97% 0in /  0.0mm 0 W/m2
18:03 39 °F /  3.9 °C 38.3 °F /  3.5 °C 30.2in /  1021.7hPa ENE 0.9mph /  1.4km/h 3mph /  4.8km/h 97% 0in /  0.0mm 0 W/m2
18:08 39 °F /  3.9 °C 38.3 °F /  3.5 °C 30.2in /  1021.7hPa ENE 0.9mph /  1.4km/h 1mph /  1.6km/h 97% 0in /  0.0mm 0 W/m2
18:13 39 °F /  3.9 °C 38.3 °F /  3.5 °C 30.2in /  1021.7hPa East 2mph /  3.2km/h 3mph /  4.8km/h 97% 0in /  0.0mm 0 W/m2
18:18 39 °F /  3.9 °C 38.3 °F /  3.5 °C 30.2in /  1021.3hPa Calm   2mph /  3.2km/h 97% 0in /  0.0mm 0 W/m2
18:23 39.2 °F /  4 °C 38.5 °F /  3.6 °C 30.2in /  1021.7hPa East 0.9mph /  1.4km/h 3mph /  4.8km/h 97% 0in /  0.0mm 0 W/m2
18:28 39.4 °F /  4.1 °C 38.7 °F /  3.7 °C 30.2in /  1021.7hPa ENE 2mph /  3.2km/h 3mph /  4.8km/h 97% 0in /  0.0mm 0 W/m2
18:33 39.4 °F /  4.1 °C 38.7 °F /  3.7 °C 30.2in /  1021.3hPa ESE 2mph /  3.2km/h 2mph /  3.2km/h 97% 0in /  0.0mm 0 W/m2
18:38 39.4 °F /  4.1 °C 38.7 °F /  3.7 °C 30.2in /  1021.3hPa East 0.9mph /  1.4km/h 2mph /  3.2km/h 97% 0in /  0.0mm 0 W/m2
18:43 39.4 °F /  4.1 °C 38.7 °F /  3.7 °C 30.2in /  1021.3hPa ESE 2mph /  3.2km/h 3mph /  4.8km/h 97% 0in /  0.0mm 0 W/m2
18:48 39.6 °F /  4.2 °C 38.8 °F /  3.8 °C 30.2in /  1021.3hPa ESE 2mph /  3.2km/h 2mph /  3.2km/h 97% 0in /  0.0mm 0 W/m2
18:53 39.6 °F /  4.2 °C 38.8 °F /  3.8 °C 30.2in /  1021.3hPa Calm   2mph /  3.2km/h 97% 0in /  0.0mm 0 W/m2
18:58 39.6 °F /  4.2 °C 38.8 °F /  3.8 °C 30.2in /  1021.3hPa ESE 0.9mph /  1.4km/h 4mph /  6.4km/h 97% 0in /  0.0mm 0 W/m2
19:03 39.6 °F /  4.2 °C 38.8 °F /  3.8 °C 30.2in /  1021.3hPa NE 0.9mph /  1.4km/h 2mph /  3.2km/h 97% 0in /  0.0mm 0 W/m2
19:08 39.7 °F /  4.3 °C 39 °F /  3.9 °C 30.2in /  1021.3hPa ESE 0.9mph /  1.4km/h 3mph /  4.8km/h 97% 0in /  0.0mm 0 W/m2
19:13 39.7 °F /  4.3 °C 39 °F /  3.9 °C 30.2in /  1021.3hPa East 2mph /  3.2km/h 2mph /  3.2km/h 97% 0in /  0.0mm 0 W/m2
19:18 39.7 °F /  4.3 °C 39 °F /  3.9 °C 30.2in /  1021.3hPa East 0.9mph /  1.4km/h 5mph /  8km/h 97% 0in /  0.0mm 0 W/m2
19:23 39.7 °F /  4.3 °C 39 °F /  3.9 °C 30.2in /  1021.3hPa ESE 0.9mph /  1.4km/h 3mph /  4.8km/h 97% 0in /  0.0mm 0 W/m2
19:28 39.7 °F /  4.3 °C 39 °F /  3.9 °C 30.2in /  1021.3hPa ESE 0.9mph /  1.4km/h 3mph /  4.8km/h 97% 0in /  0.0mm 0 W/m2
19:33 39.9 °F /  4.4 °C 39.2 °F /  4 °C 30.2in /  1021.3hPa East 2mph /  3.2km/h 2mph /  3.2km/h 97% 0in /  0.0mm 0 W/m2
19:38 39.9 °F /  4.4 °C 39.2 °F /  4 °C 30.2in /  1021.3hPa East 2.9mph /  4.7km/h 4mph /  6.4km/h 97% 0in /  0.0mm 0 W/m2
19:43 39.9 °F /  4.4 °C 39.2 °F /  4 °C 30.2in /  1021.3hPa ESE 2mph /  3.2km/h 2mph /  3.2km/h 97% 0in /  0.0mm 0 W/m2
19:48 39.9 °F /  4.4 °C 39.2 °F /  4 °C 30.2in /  1021.3hPa ESE 0.9mph /  1.4km/h 4mph /  6.4km/h 97% 0in /  0.0mm 0 W/m2
19:53 40.1 °F /  4.5 °C 39.4 °F /  4.1 °C 30.2in /  1021.3hPa ENE 0.9mph /  1.4km/h 2mph /  3.2km/h 97% 0in /  0.0mm 0 W/m2
19:59 40.1 °F /  4.5 °C 39.4 °F /  4.1 °C 30.2in /  1021.3hPa East 2mph /  3.2km/h 4mph /  6.4km/h 97% 0in /  0.0mm 0 W/m2
20:04 40.1 °F /  4.5 °C 39.4 °F /  4.1 °C 30.2in /  1021.0hPa East 2mph /  3.2km/h 6mph /  9.7km/h 97% 0in /  0.0mm 0 W/m2
20:09 40.1 °F /  4.5 °C 39.4 °F /  4.1 °C 30.2in /  1021.3hPa NNE 2.9mph /  4.7km/h 3mph /  4.8km/h 97% 0in /  0.0mm 0 W/m2
20:14 40.3 °F /  4.6 °C 39.6 °F /  4.2 °C 30.2in /  1021.3hPa ESE 0.9mph /  1.4km/h 6mph /  9.7km/h 97% 0in /  0.0mm 0 W/m2
20:19 40.3 °F /  4.6 °C 39.6 °F /  4.2 °C 30.2in /  1021.3hPa ESE 2mph /  3.2km/h 4mph /  6.4km/h 97% 0in /  0.0mm 0 W/m2
20:24 40.3 °F /  4.6 °C 39.6 °F /  4.2 °C 30.2in /  1021.3hPa ESE 0.9mph /  1.4km/h 4mph /  6.4km/h 97% 0in /  0.0mm 0 W/m2
20:29 40.3 °F /  4.6 °C 39.6 °F /  4.2 °C 30.2in /  1021.3hPa East 0.9mph /  1.4km/h 2mph /  3.2km/h 97% 0in /  0.0mm 0 W/m2
20:34 40.3 °F /  4.6 °C 39.6 °F /  4.2 °C 30.2in /  1021.3hPa ESE 2mph /  3.2km/h 2mph /  3.2km/h 97% 0in /  0.0mm 0 W/m2
20:39 40.3 °F /  4.6 °C 39.6 °F /  4.2 °C 30.2in /  1021.0hPa ESE 0.9mph /  1.4km/h 1mph /  1.6km/h 97% 0in /  0.0mm 0 W/m2
20:44 40.3 °F /  4.6 °C 39.6 °F /  4.2 °C 30.2in /  1021.0hPa East 0.9mph /  1.4km/h 2mph /  3.2km/h 97% 0in /  0.0mm 0 W/m2
20:49 40.3 °F /  4.6 °C 39.6 °F /  4.2 °C 30.2in /  1021.0hPa ESE 2mph /  3.2km/h 2mph /  3.2km/h 97% 0in /  0.0mm 0 W/m2
20:54 40.1 °F /  4.5 °C 39.4 °F /  4.1 °C 30.2in /  1021.0hPa ESE 0.9mph /  1.4km/h 6mph /  9.7km/h 97% 0in /  0.0mm 0 W/m2
20:59 40.3 °F /  4.6 °C 39.6 °F /  4.2 °C 30.2in /  1021.0hPa Calm   2mph /  3.2km/h 97% 0in /  0.0mm 0 W/m2
21:04 40.3 °F /  4.6 °C 39.6 °F /  4.2 °C 30.2in /  1021.0hPa ESE 2mph /  3.2km/h 6mph /  9.7km/h 97% 0in /  0.0mm 0 W/m2
21:09 40.1 °F /  4.5 °C 39.4 °F /  4.1 °C 30.2in /  1021.0hPa ESE 0.9mph /  1.4km/h 2mph /  3.2km/h 97% 0in /  0.0mm 0 W/m2
21:14 40.1 °F /  4.5 °C 39.4 °F /  4.1 °C 30.1in /  1020.7hPa East 0.9mph /  1.4km/h 3mph /  4.8km/h 97% 0in /  0.0mm 0 W/m2
21:19 40.1 °F /  4.5 °C 39.4 °F /  4.1 °C 30.1in /  1020.7hPa East 2mph /  3.2km/h 4mph /  6.4km/h 97% 0in /  0.0mm 0 W/m2
21:24 40.1 °F /  4.5 °C 39.4 °F /  4.1 °C 30.1in /  1020.7hPa ESE 2mph /  3.2km/h 3mph /  4.8km/h 97% 0in /  0.0mm 0 W/m2
21:29 40.1 °F /  4.5 °C 39 °F /  3.9 °C 30.1in /  1020.7hPa ESE 0.9mph /  1.4km/h 2mph /  3.2km/h 96% 0in /  0.0mm 0 W/m2
21:34 40.3 °F /  4.6 °C 39.2 °F /  4 °C 30.1in /  1020.7hPa East 2.9mph /  4.7km/h 3mph /  4.8km/h 96% 0in /  0.0mm 0 W/m2
21:39 40.1 °F /  4.5 °C 39 °F /  3.9 °C 30.1in /  1020.7hPa East 2mph /  3.2km/h 3mph /  4.8km/h 96% 0in /  0.0mm 0 W/m2
21:44 40.1 °F /  4.5 °C 39 °F /  3.9 °C 30.1in /  1020.7hPa East 2mph /  3.2km/h 3mph /  4.8km/h 96% 0in /  0.0mm 0 W/m2
21:49 40.3 °F /  4.6 °C 39.2 °F /  4 °C 30.1in /  1020.7hPa ESE 0.9mph /  1.4km/h 2mph /  3.2km/h 96% 0in /  0.0mm 0 W/m2
21:54 40.3 °F /  4.6 °C 39.2 °F /  4 °C 30.1in /  1020.7hPa ESE 2.9mph /  4.7km/h 4mph /  6.4km/h 96% 0in /  0.0mm 0 W/m2
21:59 40.3 °F /  4.6 °C 39.2 °F /  4 °C 30.1in /  1020.7hPa ESE 2mph /  3.2km/h 4mph /  6.4km/h 96% 0in /  0.0mm 0 W/m2
22:04 40.3 °F /  4.6 °C 39.2 °F /  4 °C 30.1in /  1020.7hPa ESE 0.9mph /  1.4km/h 5mph /  8km/h 96% 0in /  0.0mm 0 W/m2
22:09 40.1 °F /  4.5 °C 39 °F /  3.9 °C 30.1in /  1020.7hPa East 4mph /  6.4km/h 6mph /  9.7km/h 96% 0in /  0.0mm 0 W/m2
22:14 39.9 °F /  4.4 °C 38.8 °F /  3.8 °C 30.1in /  1020.7hPa ESE 2.9mph /  4.7km/h 4mph /  6.4km/h 96% 0in /  0.0mm 0 W/m2
22:19 39.9 °F /  4.4 °C 38.8 °F /  3.8 °C 30.1in /  1020.7hPa Calm   2mph /  3.2km/h 96% 0in /  0.0mm 0 W/m2
22:24 39.9 °F /  4.4 °C 38.8 °F /  3.8 °C 30.1in /  1020.3hPa SE 2mph /  3.2km/h 3mph /  4.8km/h 96% 0in /  0.0mm 0 W/m2
22:29 39.9 °F /  4.4 °C 38.8 °F /  3.8 °C 30.1in /  1020.3hPa Calm   3mph /  4.8km/h 96% 0in /  0.0mm 0 W/m2
22:34 39.9 °F /  4.4 °C 38.8 °F /  3.8 °C 30.1in /  1020.3hPa East 0.9mph /  1.4km/h 3mph /  4.8km/h 96% 0in /  0.0mm 0 W/m2
22:39 39.9 °F /  4.4 °C 38.8 °F /  3.8 °C 30.1in /  1020.3hPa East 2mph /  3.2km/h 6mph /  9.7km/h 96% 0in /  0.0mm 0 W/m2
22:44 39.9 °F /  4.4 °C 38.8 °F /  3.8 °C 30.1in /  1020.3hPa ESE 2.9mph /  4.7km/h 4mph /  6.4km/h 96% 0in /  0.0mm 0 W/m2
22:49 39.7 °F /  4.3 °C 38.7 °F /  3.7 °C 30.1in /  1020.3hPa SE 0.9mph /  1.4km/h 3mph /  4.8km/h 96% 0in /  0.0mm 0 W/m2
22:54 39.9 °F /  4.4 °C 38.8 °F /  3.8 °C 30.1in /  1020.3hPa ESE 0.9mph /  1.4km/h 4mph /  6.4km/h 96% 0in /  0.0mm 0 W/m2
22:59 39.7 °F /  4.3 °C 38.5 °F /  3.6 °C 30.1in /  1020.3hPa East 0.9mph /  1.4km/h 4mph /  6.4km/h 95% 0in /  0.0mm 0 W/m2
23:04 39.7 °F /  4.3 °C 38.5 °F /  3.6 °C 30.1in /  1020.3hPa ESE 0.9mph /  1.4km/h 4mph /  6.4km/h 95% 0in /  0.0mm 0 W/m2
23:09 39.7 °F /  4.3 °C 38.5 °F /  3.6 °C 30.1in /  1020.3hPa Calm   3mph /  4.8km/h 95% 0in /  0.0mm 0 W/m2
23:14 39.6 °F /  4.2 °C 38.3 °F /  3.5 °C 30.1in /  1020.3hPa East 2mph /  3.2km/h 3mph /  4.8km/h 95% 0in /  0.0mm 0 W/m2
23:19 39.6 °F /  4.2 °C 38.3 °F /  3.5 °C 30.1in /  1020.3hPa ENE 2mph /  3.2km/h 5mph /  8km/h 95% 0in /  0.0mm 0 W/m2
23:24 39.6 °F /  4.2 °C 38.3 °F /  3.5 °C 30.1in /  1020.3hPa East 2.9mph /  4.7km/h 3mph /  4.8km/h 95% 0in /  0.0mm 0 W/m2
23:29 39.4 °F /  4.1 °C 38.1 °F /  3.4 °C 30.1in /  1020.0hPa Calm   1mph /  1.6km/h 95% 0in /  0.0mm 0 W/m2
23:34 39.4 °F /  4.1 °C 38.1 °F /  3.4 °C 30.1in /  1020.0hPa ESE 0.9mph /  1.4km/h 2mph /  3.2km/h 95% 0in /  0.0mm 0 W/m2
23:39 39.4 °F /  4.1 °C 38.1 °F /  3.4 °C 30.1in /  1020.0hPa East 0.9mph /  1.4km/h 3mph /  4.8km/h 95% 0in /  0.0mm 0 W/m2
23:44 39.4 °F /  4.1 °C 38.1 °F /  3.4 °C 30.1in /  1020.0hPa ESE 0.9mph /  1.4km/h 3mph /  4.8km/h 95% 0in /  0.0mm 0 W/m2
23:49 39.4 °F /  4.1 °C 38.3 °F /  3.5 °C 30.1in /  1020.0hPa Calm   2mph /  3.2km/h 96% 0in /  0.0mm 0 W/m2
23:54 39.2 °F /  4 °C 37.9 °F /  3.3 °C 30.1in /  1020.0hPa East 0.9mph /  1.4km/h 4mph /  6.4km/h 95% 0in /  0.0mm 0 W/m2
23:59 39.2 °F /  4 °C 37.9 °F /  3.3 °C 30.1in /  1020.0hPa East 0.9mph /  1.4km/h 2mph /  3.2km/h 95% 0in /  0.0mm 0 W/m2
Juneau County Weather
Compliments of Weather Underground - 4 mb